createdAt,value
2019-02-09T00:03:29.344Z,41.95
2019-02-09T00:05:57.485Z,42.00
2019-02-09T00:08:25.647Z,41.94
2019-02-09T00:11:12.869Z,42.04
2019-02-09T00:13:41.029Z,41.98
2019-02-09T00:16:09.170Z,42.08
2019-02-09T00:18:37.292Z,41.87
2019-02-09T00:21:05.460Z,42.04
2019-02-09T00:23:33.601Z,42.14
2019-02-09T00:26:01.760Z,42.21
2019-02-09T00:28:29.900Z,42.21
2019-02-09T00:30:58.050Z,42.10
2019-02-09T00:33:26.211Z,42.15
2019-02-09T00:35:54.352Z,42.15
2019-02-09T00:38:22.513Z,42.19
2019-02-09T00:40:50.644Z,42.02
2019-02-09T00:43:18.789Z,42.25
2019-02-09T00:45:46.922Z,42.08
2019-02-09T00:48:15.085Z,42.29
2019-02-09T00:50:43.216Z,42.06
2019-02-09T00:53:11.358Z,42.32
2019-02-09T00:55:39.504Z,42.08
2019-02-09T00:58:07.640Z,42.27
2019-02-09T01:00:35.815Z,42.16
2019-02-09T01:03:03.954Z,42.14
2019-02-09T01:05:33.122Z,42.21
2019-02-09T01:08:01.267Z,42.30
2019-02-09T01:10:29.935Z,42.08
2019-02-09T01:12:58.080Z,42.22
2019-02-09T01:15:26.226Z,42.06
2019-02-09T01:17:54.389Z,42.01
2019-02-09T01:20:22.901Z,42.06
2019-02-09T01:22:51.475Z,42.07
2019-02-09T01:25:19.641Z,42.20
2019-02-09T01:27:47.769Z,42.34
2019-02-09T01:30:17.038Z,42.23
2019-02-09T01:32:45.185Z,42.19
2019-02-09T01:35:13.565Z,42.27
2019-02-09T01:37:41.705Z,42.16
2019-02-09T01:40:10.545Z,42.22
2019-02-09T01:42:38.729Z,42.25
2019-02-09T01:45:25.944Z,42.30
2019-02-09T01:47:54.296Z,42.09
2019-02-09T01:50:22.469Z,42.27
2019-02-09T01:52:50.639Z,42.24
2019-02-09T01:55:18.744Z,42.10
2019-02-09T01:57:46.889Z,41.99
2019-02-09T02:00:16.088Z,42.03
2019-02-09T02:02:44.253Z,41.96
2019-02-09T02:05:12.407Z,42.13
2019-02-09T02:07:40.570Z,42.08
2019-02-09T02:10:10.442Z,42.29
2019-02-09T02:12:38.581Z,42.23
2019-02-09T02:15:08.029Z,42.23
2019-02-09T02:17:36.177Z,42.10
2019-02-09T02:20:04.756Z,42.11
2019-02-09T02:22:32.921Z,42.21
2019-02-09T02:25:01.086Z,42.04
2019-02-09T02:27:29.237Z,42.18
2019-02-09T02:29:57.369Z,42.03
2019-02-09T02:32:25.522Z,42.29
2019-02-09T02:34:53.666Z,42.23
2019-02-09T02:37:21.817Z,42.13
2019-02-09T02:39:49.957Z,42.31
2019-02-09T02:42:18.125Z,42.27
2019-02-09T02:44:46.273Z,42.28
2019-02-09T02:47:14.403Z,42.36
2019-02-09T02:49:42.554Z,42.17
2019-02-09T02:52:10.687Z,42.24
2019-02-09T02:54:38.862Z,42.12
2019-02-09T02:57:06.991Z,42.04
2019-02-09T02:59:35.157Z,42.23
2019-02-09T03:02:03.313Z,42.21
2019-02-09T03:04:31.478Z,42.24
2019-02-09T03:06:59.640Z,42.15
2019-02-09T03:09:27.776Z,42.00
2019-02-09T03:11:55.937Z,42.03
2019-02-09T03:14:24.085Z,42.21
2019-02-09T03:16:52.232Z,42.18
2019-02-09T03:19:20.378Z,42.20
2019-02-09T03:21:48.522Z,42.20
2019-02-09T03:24:16.676Z,42.20
2019-02-09T03:26:44.844Z,42.15
2019-02-09T03:29:12.976Z,42.16
2019-02-09T03:31:41.147Z,41.96
2019-02-09T03:34:09.285Z,42.06
2019-02-09T03:36:37.442Z,42.23
2019-02-09T03:39:07.280Z,42.32
2019-02-09T03:41:35.463Z,42.26
2019-02-09T03:44:03.623Z,42.01
2019-02-09T03:46:31.762Z,42.26
2019-02-09T03:48:59.905Z,42.14
2019-02-09T03:51:28.054Z,42.19
2019-02-09T03:53:56.190Z,41.91
2019-02-09T03:56:24.324Z,42.21
2019-02-09T03:58:52.473Z,42.26
2019-02-09T04:01:20.640Z,42.12
2019-02-09T04:03:48.800Z,42.14
2019-02-09T04:06:16.943Z,42.09
2019-02-09T04:08:45.125Z,42.01
2019-02-09T04:11:13.257Z,41.99
2019-02-09T04:14:00.501Z,41.98
2019-02-09T04:16:28.636Z,41.91
2019-02-09T04:19:15.856Z,42.17
2019-02-09T04:21:46.255Z,42.02
2019-02-09T04:24:14.417Z,42.17
2019-02-09T04:26:42.555Z,42.04
2019-02-09T04:29:10.749Z,42.10
2019-02-09T04:31:38.888Z,42.07
2019-02-09T04:34:07.019Z,41.99
2019-02-09T04:39:22.305Z,42.09
2019-02-09T04:41:50.444Z,42.07
2019-02-09T04:44:18.581Z,42.03
2019-02-09T04:46:46.735Z,42.13
2019-02-09T04:49:14.872Z,42.00
2019-02-09T04:51:43.039Z,41.83
2019-02-09T04:54:11.173Z,42.33
2019-02-09T04:56:39.351Z,42.08
2019-02-09T04:59:07.492Z,42.16
2019-02-09T05:01:35.647Z,42.19
2019-02-09T05:06:50.950Z,42.25
2019-02-09T05:09:19.081Z,42.14
2019-02-09T05:11:47.235Z,42.12
2019-02-09T05:14:15.375Z,42.21
2019-02-09T05:16:43.527Z,42.18
2019-02-09T05:19:11.688Z,42.22
2019-02-09T05:21:39.813Z,42.09
2019-02-09T05:24:07.952Z,42.06
2019-02-09T05:26:36.104Z,42.16
2019-02-09T05:29:04.233Z,42.06
2019-02-09T05:34:06.327Z,41.98
2019-02-09T05:36:34.462Z,42.11
2019-02-09T05:41:36.081Z,42.17
2019-02-09T05:44:04.272Z,42.26
2019-02-09T05:46:32.401Z,42.02
2019-02-09T05:49:00.561Z,42.00
2019-02-09T05:51:28.702Z,42.03
2019-02-09T05:53:56.868Z,42.11
2019-02-09T05:58:59.062Z,41.84
2019-02-09T06:01:31.969Z,42.09
2019-02-09T06:03:57.069Z,41.90
2019-02-09T06:06:25.195Z,42.03
2019-02-09T06:09:12.421Z,42.02
2019-02-09T06:11:40.543Z,42.10
2019-02-09T06:14:08.715Z,42.00
2019-02-09T06:16:36.845Z,42.09
2019-02-09T06:19:04.984Z,42.14
2019-02-09T06:21:33.118Z,42.13
2019-02-09T06:24:01.254Z,42.30
2019-02-09T06:26:29.402Z,42.23
2019-02-09T06:28:57.533Z,42.13
2019-02-09T06:31:25.692Z,42.18
2019-02-09T06:33:53.825Z,42.24
2019-02-09T06:36:41.098Z,42.27
2019-02-09T06:39:09.232Z,42.20
2019-02-09T06:41:37.375Z,42.24
2019-02-09T06:44:05.513Z,42.08
2019-02-09T06:46:33.658Z,42.24
2019-02-09T06:49:01.798Z,42.12
2019-02-09T06:51:29.946Z,42.14
2019-02-09T06:53:58.110Z,42.36
2019-02-09T06:56:26.253Z,42.29
2019-02-09T06:58:54.444Z,42.20
2019-02-09T07:01:22.559Z,42.08
2019-02-09T07:07:02.719Z,42.20
2019-02-09T07:09:30.869Z,42.18
2019-02-09T07:11:58.992Z,42.14
2019-02-09T07:14:27.147Z,42.30
2019-02-09T07:17:14.369Z,42.15
2019-02-09T07:19:42.512Z,42.09
2019-02-09T07:22:10.662Z,42.21
2019-02-09T07:24:38.879Z,42.15
2019-02-09T07:27:07.019Z,42.08
2019-02-09T07:29:35.185Z,42.06
2019-02-09T07:32:03.331Z,42.07
2019-02-09T07:34:31.502Z,42.25
2019-02-09T07:36:59.666Z,42.25
2019-02-09T07:39:27.824Z,42.05
2019-02-09T07:41:55.974Z,42.10
2019-02-09T07:44:24.113Z,42.07
2019-02-09T07:46:52.248Z,42.06
2019-02-09T07:49:20.397Z,42.18
2019-02-09T07:51:48.542Z,41.98
2019-02-09T07:54:16.706Z,42.16
2019-02-09T07:56:44.834Z,41.94
2019-02-09T07:59:31.908Z,42.08
2019-02-09T08:02:04.617Z,41.89
2019-02-09T08:04:29.850Z,41.91
2019-02-09T08:06:57.978Z,41.86
2019-02-09T08:12:13.232Z,41.79
2019-02-09T08:15:00.343Z,41.58
2019-02-09T08:17:28.435Z,41.65
2019-02-09T08:19:56.581Z,41.73
2019-02-09T08:22:24.736Z,41.72
2019-02-09T08:24:52.886Z,41.96
2019-02-09T08:27:23.672Z,41.75
2019-02-09T08:29:50.864Z,41.67
2019-02-09T08:32:18.999Z,41.60
2019-02-09T08:34:47.136Z,41.48
2019-02-09T08:37:15.328Z,41.70
2019-02-09T08:39:43.469Z,41.79
2019-02-09T08:42:11.604Z,41.95
2019-02-09T08:44:39.741Z,41.96
2019-02-09T08:47:07.894Z,41.88
2019-02-09T08:49:36.049Z,41.99
2019-02-09T08:52:04.197Z,41.96
2019-02-09T08:54:51.278Z,42.18
2019-02-09T08:57:19.438Z,42.09
2019-02-09T08:59:47.572Z,42.10
2019-02-09T09:02:20.377Z,42.16
2019-02-09T09:04:45.552Z,42.18
2019-02-09T09:07:13.716Z,42.13
2019-02-09T09:09:41.853Z,42.26
2019-02-09T09:12:09.989Z,42.22
2019-02-09T09:14:38.131Z,42.19
2019-02-09T09:17:06.291Z,42.17
2019-02-09T09:19:34.442Z,42.27
2019-02-09T09:22:02.584Z,42.35
2019-02-09T09:24:49.814Z,42.21
2019-02-09T09:27:17.957Z,41.86
2019-02-09T09:30:06.944Z,41.79
2019-02-09T09:32:35.030Z,42.09
2019-02-09T09:35:03.164Z,42.19
2019-02-09T09:37:31.318Z,41.87
2019-02-09T09:39:59.459Z,41.76
2019-02-09T09:42:27.625Z,41.84
2019-02-09T09:44:55.756Z,41.72
2019-02-09T09:47:23.900Z,41.77
2019-02-09T09:49:52.031Z,41.97
2019-02-09T09:52:20.300Z,42.01
2019-02-09T09:54:48.439Z,41.87
2019-02-09T09:57:16.633Z,41.84
2019-02-09T10:02:36.515Z,41.73
2019-02-09T10:05:01.759Z,41.82
2019-02-09T10:07:29.917Z,41.73
2019-02-09T10:09:58.051Z,41.73
2019-02-09T10:12:45.217Z,41.75
2019-02-09T10:15:33.234Z,41.66
2019-02-09T10:18:01.381Z,41.66
2019-02-09T10:20:29.521Z,41.46
2019-02-09T10:22:57.662Z,41.69
2019-02-09T10:25:25.866Z,41.69
2019-02-09T10:27:54.004Z,41.61
2019-02-09T10:30:23.130Z,41.47
2019-02-09T10:32:51.574Z,41.49
2019-02-09T10:35:19.886Z,41.37
2019-02-09T10:37:48.016Z,41.54
2019-02-09T10:40:17.462Z,41.54
2019-02-09T10:42:46.273Z,41.50
2019-02-09T10:48:26.113Z,41.56
2019-02-09T10:50:54.265Z,41.39
2019-02-09T10:53:22.404Z,41.47
2019-02-09T10:55:50.539Z,41.41
2019-02-09T10:58:18.692Z,41.35
2019-02-09T11:00:48.066Z,41.40
2019-02-09T11:03:16.201Z,41.40
2019-02-09T11:08:31.581Z,41.14
2019-02-09T11:10:59.721Z,41.37
2019-02-09T11:13:27.853Z,41.45
2019-02-09T11:15:55.975Z,41.72
2019-02-09T11:18:24.125Z,41.77
2019-02-09T11:20:52.271Z,41.73
2019-02-09T11:23:20.420Z,41.64
2019-02-09T11:26:07.683Z,41.61
2019-02-09T11:28:35.841Z,41.50
2019-02-09T11:31:03.968Z,41.28
2019-02-09T11:33:32.129Z,41.36
2019-02-09T11:36:00.271Z,41.35
2019-02-09T11:38:28.404Z,41.43
2019-02-09T11:40:56.544Z,41.50
2019-02-09T11:43:24.698Z,41.46
2019-02-09T11:45:52.855Z,41.38
2019-02-09T11:48:20.994Z,41.38
2019-02-09T11:50:49.152Z,41.31
2019-02-09T11:53:17.322Z,41.41
2019-02-09T11:55:45.470Z,41.36
2019-02-09T11:58:13.600Z,41.45
2019-02-09T12:00:46.085Z,41.48
2019-02-09T12:03:16.104Z,41.57
2019-02-09T12:05:44.051Z,41.60
2019-02-09T12:08:12.196Z,41.50
2019-02-09T12:10:40.349Z,41.55
2019-02-09T12:13:08.497Z,41.60
2019-02-09T12:15:36.648Z,41.61
2019-02-09T12:18:05.399Z,41.67
2019-02-09T12:20:33.555Z,41.63
2019-02-09T12:23:01.696Z,41.64
2019-02-09T12:25:30.715Z,41.79
2019-02-09T12:27:58.877Z,41.75
2019-02-09T12:30:27.677Z,41.70
2019-02-09T12:32:55.819Z,41.67
2019-02-09T12:35:23.948Z,41.76
2019-02-09T12:37:52.125Z,41.72
2019-02-09T12:40:21.297Z,41.70
2019-02-09T12:42:49.837Z,41.54
2019-02-09T12:45:18.332Z,41.71
2019-02-09T12:47:46.508Z,41.73
2019-02-09T12:50:14.796Z,41.58
2019-02-09T12:52:43.015Z,41.74
2019-02-09T12:55:11.563Z,41.62
2019-02-09T12:57:39.703Z,41.68
2019-02-09T13:00:09.626Z,41.72
2019-02-09T13:02:37.803Z,41.73
2019-02-09T13:05:05.949Z,41.73
2019-02-09T13:07:34.103Z,41.79
2019-02-09T13:10:02.250Z,41.73
2019-02-09T13:12:30.383Z,41.63
2019-02-09T13:14:58.533Z,41.55
2019-02-09T13:17:26.664Z,41.66
2019-02-09T13:19:54.837Z,41.65
2019-02-09T13:22:22.979Z,41.67
2019-02-09T13:24:51.135Z,41.56
2019-02-09T13:27:19.301Z,41.76
2019-02-09T13:29:47.433Z,41.61
2019-02-09T13:32:15.599Z,41.65
2019-02-09T13:34:43.744Z,41.63
2019-02-09T13:37:11.913Z,41.55
2019-02-09T13:39:40.070Z,41.59
2019-02-09T13:42:08.203Z,41.55
2019-02-09T13:44:36.348Z,41.55
2019-02-09T13:47:04.489Z,41.58
2019-02-09T13:49:32.654Z,41.77
2019-02-09T13:52:00.811Z,41.65
2019-02-09T13:54:28.977Z,41.76
2019-02-09T13:56:57.139Z,41.68
2019-02-09T13:59:25.282Z,41.79
2019-02-09T14:01:53.434Z,41.75
2019-02-09T14:04:21.565Z,41.83
2019-02-09T14:06:49.830Z,41.86
2019-02-09T14:09:18.114Z,41.72
2019-02-09T14:11:46.483Z,41.68
2019-02-09T14:14:14.633Z,41.69
2019-02-09T14:16:42.782Z,41.67
2019-02-09T14:19:10.944Z,41.63
2019-02-09T14:21:39.126Z,41.80
2019-02-09T14:24:07.266Z,41.70
2019-02-09T14:26:35.391Z,41.89
2019-02-09T14:29:03.536Z,41.88
2019-02-09T14:31:31.679Z,41.79
2019-02-09T14:33:59.886Z,41.72
2019-02-09T14:36:28.011Z,41.80
2019-02-09T14:38:56.153Z,41.78
2019-02-09T14:41:25.293Z,41.85
2019-02-09T14:43:53.481Z,41.67
2019-02-09T14:46:21.621Z,41.76
2019-02-09T14:48:49.761Z,41.79
2019-02-09T14:51:17.892Z,41.77
2019-02-09T14:53:46.052Z,41.73
2019-02-09T14:56:14.187Z,41.85
2019-02-09T14:58:42.329Z,41.89
2019-02-09T15:01:10.468Z,41.78
2019-02-09T15:03:38.604Z,41.79
2019-02-09T15:06:06.761Z,41.87
2019-02-09T15:08:34.918Z,41.83
2019-02-09T15:11:03.072Z,41.75
2019-02-09T15:13:31.217Z,41.76
2019-02-09T15:16:01.785Z,41.81
2019-02-09T15:18:29.926Z,41.76
2019-02-09T15:20:58.961Z,41.87
2019-02-09T15:23:27.133Z,41.90
2019-02-09T15:25:55.285Z,41.76
2019-02-09T15:28:23.434Z,41.95
2019-02-09T15:30:51.637Z,41.93
2019-02-09T15:33:19.811Z,41.91
2019-02-09T15:35:47.934Z,41.83
2019-02-09T15:38:16.076Z,41.85
2019-02-09T15:40:44.225Z,41.83
2019-02-09T15:43:12.381Z,41.91
2019-02-09T15:45:40.527Z,42.06
2019-02-09T15:48:08.675Z,41.92
2019-02-09T15:50:36.843Z,41.79
2019-02-09T15:53:05.033Z,41.86
2019-02-09T15:55:33.164Z,41.88
2019-02-09T15:58:01.323Z,42.11
2019-02-09T16:00:29.463Z,42.00
2019-02-09T16:02:57.628Z,41.86
2019-02-09T16:05:25.810Z,41.89
2019-02-09T16:07:53.967Z,41.81
2019-02-09T16:10:22.128Z,41.74
2019-02-09T16:12:50.397Z,41.62
2019-02-09T16:15:19.609Z,41.91
2019-02-09T16:17:47.757Z,41.91
2019-02-09T16:20:16.765Z,41.77
2019-02-09T16:22:44.888Z,41.83
2019-02-09T16:25:13.029Z,41.75
2019-02-09T16:27:41.208Z,41.80
2019-02-09T16:30:10.375Z,41.78
2019-02-09T16:32:38.520Z,41.78
2019-02-09T16:35:07.806Z,41.68
2019-02-09T16:37:35.931Z,41.75
2019-02-09T16:40:04.116Z,41.87
2019-02-09T16:42:32.259Z,41.94
2019-02-09T16:45:00.408Z,41.73
2019-02-09T16:47:28.566Z,41.77
2019-02-09T16:49:56.696Z,41.71
2019-02-09T16:52:24.887Z,41.78
2019-02-09T16:54:53.030Z,41.59
2019-02-09T16:57:21.192Z,41.61
2019-02-09T16:59:49.341Z,41.68
2019-02-09T17:02:17.489Z,41.82
2019-02-09T17:04:45.620Z,41.79
2019-02-09T17:07:13.799Z,41.65
2019-02-09T17:09:41.966Z,41.69
2019-02-09T17:12:10.115Z,41.64
2019-02-09T17:14:38.288Z,41.51
2019-02-09T17:17:06.498Z,41.64
2019-02-09T17:19:34.639Z,41.72
2019-02-09T17:22:02.798Z,41.74
2019-02-09T17:24:30.929Z,41.76
2019-02-09T17:26:59.077Z,41.85
2019-02-09T17:29:27.277Z,41.85
2019-02-09T17:31:55.420Z,41.74
2019-02-09T17:34:23.564Z,41.75
2019-02-09T17:36:51.733Z,41.87
2019-02-09T17:39:19.869Z,41.86
2019-02-09T17:41:48.000Z,41.90
2019-02-09T17:44:16.173Z,41.87
2019-02-09T17:46:44.303Z,41.86
2019-02-09T17:49:12.469Z,41.97
2019-02-09T17:51:40.607Z,41.83
2019-02-09T17:54:08.749Z,41.78
2019-02-09T17:56:37.189Z,41.85
2019-02-09T17:59:05.342Z,41.86
2019-02-09T18:01:33.480Z,41.82
2019-02-09T18:04:01.655Z,41.85
2019-02-09T18:06:29.808Z,41.86
2019-02-09T18:08:57.957Z,41.83
2019-02-09T18:11:26.091Z,41.94
2019-02-09T18:13:54.241Z,41.87
2019-02-09T18:16:22.460Z,41.86
2019-02-09T18:18:50.605Z,41.95
2019-02-09T18:21:18.740Z,41.82
2019-02-09T18:23:46.892Z,41.82
2019-02-09T18:26:15.044Z,41.89
2019-02-09T18:28:43.203Z,41.79
2019-02-09T18:31:11.337Z,41.87
2019-02-09T18:33:39.464Z,41.98
2019-02-09T18:36:07.642Z,41.86
2019-02-09T18:38:35.776Z,41.83
2019-02-09T18:41:03.948Z,41.88
2019-02-09T18:43:32.092Z,41.78
2019-02-09T18:46:00.776Z,41.85
2019-02-09T18:48:28.965Z,41.88
2019-02-09T18:50:57.213Z,41.94
2019-02-09T18:53:25.351Z,41.96
2019-02-09T18:55:53.488Z,41.91
2019-02-09T18:58:21.648Z,41.92
2019-02-09T19:00:49.794Z,41.99
2019-02-09T19:03:17.949Z,41.88
2019-02-09T19:05:46.110Z,41.87
2019-02-09T19:08:14.248Z,41.83
2019-02-09T19:10:42.388Z,41.80
2019-02-09T19:13:10.557Z,41.81
2019-02-09T19:15:38.802Z,41.65
2019-02-09T19:18:07.260Z,41.76
2019-02-09T19:20:36.760Z,41.71
2019-02-09T19:23:04.958Z,41.94
2019-02-09T19:25:33.089Z,41.79
2019-02-09T19:28:01.238Z,41.82
2019-02-09T19:30:29.376Z,41.78
2019-02-09T19:32:57.532Z,41.80
2019-02-09T19:35:25.661Z,41.83
2019-02-09T19:37:54.103Z,41.70
2019-02-09T19:40:22.430Z,41.56
2019-02-09T19:42:50.579Z,41.75
2019-02-09T19:45:22.494Z,41.74
2019-02-09T19:47:50.669Z,41.84
2019-02-09T19:50:18.821Z,41.76
2019-02-09T19:52:47.081Z,41.66
2019-02-09T19:55:16.391Z,41.76
2019-02-09T19:57:44.534Z,41.63
2019-02-09T20:00:17.172Z,41.73
2019-02-09T20:02:45.333Z,41.77
2019-02-09T20:05:19.729Z,41.79
2019-02-09T20:07:43.305Z,41.72
2019-02-09T20:10:12.254Z,41.60
2019-02-09T20:12:40.385Z,41.69
2019-02-09T20:15:09.299Z,41.74
2019-02-09T20:17:37.447Z,41.70
2019-02-09T20:20:06.042Z,41.69
2019-02-09T20:22:35.673Z,41.74
2019-02-09T20:25:04.730Z,41.70
2019-02-09T20:27:36.091Z,41.64
2019-02-09T20:30:05.807Z,41.62
2019-02-09T20:32:33.944Z,41.72
2019-02-09T20:35:02.122Z,41.72
2019-02-09T20:37:30.253Z,41.73
2019-02-09T20:39:58.402Z,41.65
2019-02-09T20:42:26.549Z,41.80
2019-02-09T20:44:54.708Z,41.70
2019-02-09T20:47:22.881Z,41.57
2019-02-09T20:49:51.068Z,41.60
2019-02-09T20:52:19.204Z,41.62
2019-02-09T20:54:47.334Z,41.72
2019-02-09T20:57:15.473Z,41.75
2019-02-09T20:59:43.655Z,41.72
2019-02-09T21:02:11.793Z,41.71
2019-02-09T21:04:39.924Z,41.70
2019-02-09T21:07:08.098Z,41.78
2019-02-09T21:09:36.235Z,41.62
2019-02-09T21:12:04.486Z,41.78
2019-02-09T21:14:32.666Z,41.78
2019-02-09T21:17:00.813Z,41.72
2019-02-09T21:19:28.945Z,41.75
2019-02-09T21:21:57.105Z,41.62
2019-02-09T21:24:25.253Z,41.72
2019-02-09T21:26:53.413Z,41.61
2019-02-09T21:29:21.573Z,41.53
2019-02-09T21:31:49.700Z,41.62
2019-02-09T21:34:17.865Z,41.61
2019-02-09T21:36:45.997Z,41.77
2019-02-09T21:39:14.160Z,41.29
2019-02-09T21:41:42.286Z,41.68
2019-02-09T21:44:10.493Z,41.76
2019-02-09T21:46:38.675Z,41.77
2019-02-09T21:49:06.807Z,41.66
2019-02-09T21:51:34.963Z,41.68
2019-02-09T21:54:03.135Z,41.55
2019-02-09T21:56:31.257Z,41.72
2019-02-09T21:58:59.402Z,41.71
2019-02-09T22:01:27.641Z,41.77
2019-02-09T22:03:55.844Z,41.70
2019-02-09T22:06:23.959Z,41.79
2019-02-09T22:08:52.092Z,41.85
2019-02-09T22:11:20.279Z,41.81
2019-02-09T22:13:48.363Z,41.68
2019-02-09T22:16:16.499Z,41.71
2019-02-09T22:18:44.712Z,41.49
2019-02-09T22:21:13.014Z,41.63
2019-02-09T22:23:41.236Z,41.58
2019-02-09T22:26:13.176Z,41.61
2019-02-09T22:28:39.198Z,41.72
2019-02-09T22:31:07.547Z,41.63
2019-02-09T22:33:35.682Z,41.58
2019-02-09T22:36:03.840Z,41.62
2019-02-09T22:38:31.968Z,41.69
2019-02-09T22:41:00.113Z,41.60
2019-02-09T22:43:28.294Z,41.56
2019-02-09T22:45:56.441Z,41.71
2019-02-09T22:48:24.592Z,41.58
2019-02-09T22:50:52.745Z,41.69
2019-02-09T22:53:20.882Z,41.65
2019-02-09T22:55:49.060Z,41.62
2019-02-09T22:58:17.202Z,41.70
2019-02-09T23:00:52.518Z,41.74
2019-02-09T23:03:22.116Z,41.52
2019-02-09T23:06:09.159Z,41.60
2019-02-09T23:08:37.289Z,41.70
2019-02-09T23:11:05.419Z,41.58
2019-02-09T23:13:33.564Z,41.53
2019-02-09T23:16:01.700Z,41.62
2019-02-09T23:18:29.848Z,41.60
2019-02-09T23:20:57.967Z,41.67
2019-02-09T23:23:26.104Z,41.71
2019-02-09T23:25:54.966Z,41.67
2019-02-09T23:28:23.337Z,41.56
2019-02-09T23:30:51.503Z,41.42
2019-02-09T23:33:19.673Z,41.52
2019-02-09T23:35:47.821Z,41.62
2019-02-09T23:38:16.002Z,41.60
2019-02-09T23:40:44.144Z,41.63
2019-02-09T23:43:12.272Z,41.53
2019-02-09T23:45:40.434Z,41.72
2019-02-09T23:48:08.610Z,41.84
2019-02-09T23:50:36.769Z,41.62
2019-02-09T23:53:04.925Z,41.60
2019-02-09T23:55:33.089Z,41.61
2019-02-09T23:58:01.268Z,41.53
